Lauritzen Yacht Harbor
Updated WEATHER every hour; Delta WATER and tide conditions; live TOWER CAM;
The FISHING report with PHOTOGRAPHS; harbor NEWS Items; before you get UNDERWAY ;
OTHER points of interest; WHO are we? WHAT can we provide? WHERE are we?

CRITICAL NEWS REGARING FRANKS TRACK AND LITTLE FRANKS TRACK

24 Hour Weather Archive

                   Temp   Wind   Hum   Dew   Wind                            
   Date    Time    Out   Chill   Out   Pt.  Speed    Hi    Dir   Rain   Bar  
 8/27/19  12:00a   78.4   77.7    --     --   5.0   12.0     N   0.00  29.870
 8/27/19  12:30a   75.5   74.6    --     --   5.0   11.0     N   0.00  29.870
 8/27/19   1:00a   73.6   73.6    --     --   3.0   11.0     N   0.00  29.868
 8/27/19   1:30a   72.3   72.3    --     --   4.0   10.0     N   0.00  29.860
 8/27/19   2:00a   72.1   69.6    --     --   7.0   13.0     N   0.00  29.864
 8/27/19   2:30a   70.0   67.2    --     --   7.0   17.0     N   0.00  29.858
 8/27/19   3:00a   68.0   64.1    --     --   8.0   17.0     N   0.00  29.863
 8/27/19   3:30a   66.6   65.2    --     --   5.0   12.0     N   0.00  29.868
 8/27/19   4:00a   65.8   64.4    --     --   5.0   14.0     N   0.00  29.866
 8/27/19   4:30a   65.2   63.8    --     --   5.0   13.0     N   0.00  29.869
 8/27/19   5:00a   64.4   62.9    --     --   5.0   13.0     N   0.00  29.869
 8/27/19   5:30a   64.1   64.1    --     --   4.0    9.0     N   0.00  29.869
 8/27/19   6:00a   64.1   62.6    --     --   5.0   11.0     N   0.00  29.873
 8/27/19   6:30a   63.7   61.2    --     --   6.0   11.0     N   0.00  29.883
 8/27/19   7:00a   63.7   62.2    --     --   5.0   11.0     N   0.00  29.889
 8/27/19   7:30a   65.2   65.2    --     --   4.0   10.0     N   0.00  29.890
 8/27/19   8:00a   66.9   66.9    --     --   4.0    9.0     N   0.00  29.899
 8/27/19   8:30a   68.7   68.7    --     --   4.0   10.0     N   0.00  29.899
 8/27/19   9:00a   70.2   69.0    --     --   5.0   11.0     N   0.00  29.899
 8/27/19   9:30a   72.3   71.3    --     --   5.0   12.0     N   0.00  29.904
 8/27/19  10:00a   74.1   73.2    --     --   5.0   10.0     N   0.00  29.905
 8/27/19  10:30a   76.1   76.1    --     --   4.0   10.0     N   0.00  29.907
 8/27/19  11:00a   79.5   79.5    --     --   4.0   10.0   NNW   0.00  29.906
 8/27/19  11:30a   80.7   79.7    --     --   6.0   15.0     N   0.00  29.900
 8/27/19  12:00p   81.7   80.8    --     --   6.0   12.0   NNW   0.00  29.893
 8/27/19  12:30p   83.8   82.3    --     --   9.0   17.0   NNW   0.00  29.883
 8/27/19   1:00p   84.4   82.7    --     --  10.0   19.0     N   0.00  29.876
 8/27/19   1:30p   85.3   83.8    --     --  10.0   19.0     N   0.00  29.869
 8/27/19   2:00p   86.7   85.7    --     --   9.0   18.0     N   0.00  29.860
 8/27/19   2:30p   88.3   87.7    --     --   9.0   19.0     N   0.00  29.857
 8/27/19   3:00p   89.2   88.8    --     --   9.0   17.0     N   0.00  29.847
 8/27/19   3:30p   89.7   89.3    --     --  10.0   20.0     N   0.00  29.840
 8/27/19   4:00p   89.8   89.5    --     --   9.0   20.0     N   0.00  29.835
 8/27/19   4:30p   87.7   86.9    --     --   9.0   21.0     N   0.00  29.832
 8/27/19   5:00p   87.1   86.2    --     --   9.0   22.0     N   0.00  29.829
 8/27/19   5:30p   90.4   90.2    --     --   8.0   19.0     N   0.00  29.829
 8/27/19   6:00p   88.3   87.7    --     --   9.0   18.0     N   0.00  29.827
 8/27/19   6:30p   86.5   85.7    --     --   8.0   16.0     N   0.00  29.826
 8/27/19   7:00p   84.3   83.1    --     --   8.0   19.0     N   0.00  29.830
 8/27/19   7:30p   80.6   79.2    --     --   7.0   14.0     N   0.00  29.836
 8/27/19   8:00p   77.1   74.2    --     --   9.0   16.0     N   0.00  29.840
 8/27/19   8:30p   75.1   72.4    --     --   8.0   18.0     N   0.00  29.844
 8/27/19   9:00p   74.2   71.3    --     --   8.0   15.0     N   0.00  29.849
 8/27/19   9:30p   76.8   74.9    --     --   7.0   15.0   WSW   0.00  29.852
 8/27/19  10:00p   79.8   78.3    --     --   7.0   20.0    SW   0.00  29.852
 8/27/19  10:30p   79.8   78.7    --     --   6.0   18.0     N   0.00  29.856
 8/27/19  11:00p   80.4   79.0    --     --   7.0   19.0     N   0.00  29.853
 8/27/19  11:30p   79.7   77.3    --     --   9.0   25.0     N   0.00  29.857
 8/27/19  12:00p   78.6   76.5    --     --   8.0   19.0     N   0.00  29.861
 8/28/19  12:00a   78.6   76.5    --     --   8.0   19.0     N   0.00  29.861
 8/28/19  12:30a   75.6   72.4    --     --   9.0   22.0     N   0.00  29.872
 8/28/19   1:00a   72.7   69.6    --     --   8.0   21.0     N   0.00  29.886
 8/28/19   1:30a   69.5   66.7    --     --   7.0   17.0     N   0.00  29.894
 8/28/19   2:00a   67.9   65.7    --     --   6.0   15.0     N   0.00  29.891
 8/28/19   2:30a   66.6   62.5    --     --   8.0   16.0     N   0.00  29.894
 8/28/19   3:00a   65.4   62.0    --     --   7.0   16.0     N   0.00  29.890
 8/28/19   3:30a   65.1   60.7    --     --   8.0   16.0     N   0.00  29.887
 8/28/19   4:00a   65.1   62.7    --     --   6.0   15.0     N   0.00  29.891
 8/28/19   4:30a   65.3   62.9    --     --   6.0   14.0     N   0.00  29.888
 8/28/19   5:00a   65.0   62.6    --     --   6.0   14.0     N   0.00  29.888
 8/28/19   5:30a   64.8   62.4    --     --   6.0   15.0     N   0.00  29.889
 8/28/19   6:00a   64.3   60.8    --     --   7.0   15.0     N   0.00  29.897
 8/28/19   6:30a   63.9   59.3    --     --   8.0   19.0     N   0.00  29.909
 8/28/19   7:00a   63.4   59.8    --     --   7.0   18.0     N   0.00  29.917
 8/28/19   7:30a   64.1   60.6    --     --   7.0   17.0     N   0.00  29.931
 8/28/19   8:00a   65.0   61.6    --     --   7.0   17.0     N   0.00  29.934
 8/28/19   8:30a   66.2   62.0    --     --   8.0   20.0     N   0.00  29.943
 8/28/19   9:00a   67.9   64.0    --     --   8.0   22.0     N   0.00  29.947


Send questions or comments to:
Some of the material in this website is copyrighted © by Lauritzen Yacht Harbor and may not be used by others without our specific permission.
All rights are reserved. iPhone friendly. Viewed best with Mozilla Firefox